createdAt,value
2022-10-11T00:01:42.604Z,98810.16
2022-10-11T00:04:09.182Z,98804.47
2022-10-11T00:06:37.870Z,98799.69
2022-10-11T00:09:05.352Z,98800.44
2022-10-11T00:11:31.843Z,98806.16
2022-10-11T00:13:59.013Z,98802.63
2022-10-11T00:16:25.889Z,98802.03
2022-10-11T00:18:52.430Z,98803.66
2022-10-11T00:21:20.598Z,98797.91
2022-10-11T00:23:47.867Z,98800.47
2022-10-11T00:26:14.917Z,98795.78
2022-10-11T00:28:41.504Z,98804.25
2022-10-11T00:31:13.535Z,98808.78
2022-10-11T00:33:40.396Z,98805.03
2022-10-11T00:36:08.597Z,98804.59
2022-10-11T00:38:35.573Z,98807.00
2022-10-11T00:41:02.099Z,98808.16
2022-10-11T00:43:30.201Z,98803.47
2022-10-11T00:45:56.689Z,98807.91
2022-10-11T00:48:48.224Z,98804.72
2022-10-11T00:51:42.588Z,98810.09
2022-10-11T00:54:12.804Z,98810.31
2022-10-11T00:56:40.008Z,98810.06
2022-10-11T00:59:11.627Z,98808.25
2022-10-11T01:01:38.356Z,98814.66
2022-10-11T01:04:04.955Z,98813.06
2022-10-11T01:06:31.495Z,98818.22
2022-10-11T01:08:58.057Z,98820.66
2022-10-11T01:11:26.052Z,98822.72
2022-10-11T01:13:59.248Z,98817.97
2022-10-11T01:16:33.747Z,98824.03
2022-10-11T01:19:33.938Z,98828.50
2022-10-11T01:22:38.286Z,98827.56
2022-10-11T01:25:15.926Z,98831.25
2022-10-11T01:27:45.614Z,98830.91
2022-10-11T01:30:33.482Z,98835.25
2022-10-11T01:33:21.029Z,98829.63
2022-10-11T01:36:06.162Z,98833.59
2022-10-11T01:38:38.010Z,98834.59
2022-10-11T01:41:09.132Z,98829.88
2022-10-11T01:43:36.550Z,98832.97
2022-10-11T01:46:04.314Z,98833.13
2022-10-11T01:48:31.143Z,98831.09
2022-10-11T01:50:58.770Z,98828.78
2022-10-11T01:54:04.156Z,98832.22
2022-10-11T01:56:56.209Z,98831.91
2022-10-11T01:59:33.199Z,98826.41
2022-10-11T02:02:02.686Z,98831.41
2022-10-11T02:04:41.314Z,98823.34
2022-10-11T02:07:50.553Z,98836.25
2022-10-11T02:10:34.023Z,98834.03
2022-10-11T02:13:06.684Z,98824.38
2022-10-11T02:15:34.106Z,98828.00
2022-10-11T02:18:03.225Z,98826.91
2022-10-11T02:20:31.807Z,98828.59
2022-10-11T02:23:03.801Z,98834.75
2022-10-11T02:25:33.013Z,98835.38
2022-10-11T02:28:01.052Z,98831.75
2022-10-11T02:30:29.084Z,98833.28
2022-10-11T02:32:56.316Z,98837.16
2022-10-11T02:35:24.540Z,98841.31
2022-10-11T02:38:13.991Z,98841.75
2022-10-11T02:40:44.935Z,98839.38
2022-10-11T02:43:18.801Z,98859.41
2022-10-11T02:45:51.106Z,98842.50
2022-10-11T02:48:18.260Z,98845.19
2022-10-11T02:50:44.945Z,98845.47
2022-10-11T02:53:11.441Z,98848.59
2022-10-11T02:55:38.043Z,98846.34
2022-10-11T02:58:04.643Z,98846.34
2022-10-11T03:00:31.299Z,98845.94
2022-10-11T03:02:57.795Z,98840.75
2022-10-11T03:05:24.365Z,98849.38
2022-10-11T03:07:50.885Z,98857.44
2022-10-11T03:10:17.470Z,98850.97
2022-10-11T03:12:44.151Z,98851.59
2022-10-11T03:15:10.816Z,98855.66
2022-10-11T03:17:37.638Z,98858.00
2022-10-11T03:20:07.711Z,98858.91
2022-10-11T03:22:34.282Z,98868.56
2022-10-11T03:25:04.024Z,98861.94
2022-10-11T03:27:32.629Z,98866.56
2022-10-11T03:29:59.357Z,98870.91
2022-10-11T03:32:26.391Z,98872.25
2022-10-11T03:34:53.020Z,98868.88
2022-10-11T03:37:20.190Z,98868.38
2022-10-11T03:39:46.823Z,98872.88
2022-10-11T03:42:13.637Z,98871.34
2022-10-11T03:44:41.930Z,98865.84
2022-10-11T03:47:08.632Z,98867.84
2022-10-11T03:49:37.729Z,98872.06
2022-10-11T03:52:07.848Z,98877.25
2022-10-11T03:54:34.370Z,98876.78
2022-10-11T03:57:00.897Z,98877.19
2022-10-11T03:59:27.423Z,98879.75
2022-10-11T04:01:54.198Z,98878.31
2022-10-11T04:04:20.793Z,98878.75
2022-10-11T04:06:47.377Z,98877.44
2022-10-11T04:09:13.895Z,98880.25
2022-10-11T04:11:40.437Z,98886.28
2022-10-11T04:14:07.000Z,98882.88
2022-10-11T04:16:34.094Z,98885.13
2022-10-11T04:19:00.896Z,98887.88
2022-10-11T04:21:27.488Z,98891.44
2022-10-11T04:23:54.441Z,98905.41
2022-10-11T04:26:21.011Z,98896.44
2022-10-11T04:28:47.577Z,98891.72
2022-10-11T04:31:14.276Z,98896.75
2022-10-11T04:33:40.767Z,98901.53
2022-10-11T04:36:08.084Z,98898.38
2022-10-11T04:38:35.615Z,98897.69
2022-10-11T04:41:13.680Z,98900.09
2022-10-11T04:43:40.159Z,98899.59
2022-10-11T04:46:07.586Z,98900.03
2022-10-11T04:48:34.248Z,98896.16
2022-10-11T04:51:00.771Z,98910.75
2022-10-11T04:53:27.403Z,98903.72
2022-10-11T04:56:02.678Z,98909.63
2022-10-11T04:58:30.574Z,98906.44
2022-10-11T05:00:57.427Z,98913.28
2022-10-11T05:03:24.877Z,98914.19
2022-10-11T05:05:51.551Z,98915.41
2022-10-11T05:08:18.177Z,98910.59
2022-10-11T05:10:57.947Z,98919.59
2022-10-11T05:13:25.094Z,98924.50
2022-10-11T05:15:51.872Z,98924.50
2022-10-11T05:18:18.622Z,98924.91
2022-10-11T05:20:46.366Z,98930.88
2022-10-11T05:23:13.496Z,98921.25
2022-10-11T05:25:40.227Z,98929.09
2022-10-11T05:28:06.759Z,98929.63
2022-10-11T05:30:33.361Z,98928.09
2022-10-11T05:33:00.042Z,98929.59
2022-10-11T05:35:26.619Z,98939.28
2022-10-11T05:37:53.096Z,98936.63
2022-10-11T05:40:19.708Z,98945.78
2022-10-11T05:42:46.345Z,98945.63
2022-10-11T05:45:12.858Z,98946.50
2022-10-11T05:47:39.397Z,98944.03
2022-10-11T05:50:06.403Z,98947.13
2022-10-11T05:52:32.941Z,98949.19
2022-10-11T05:54:59.525Z,98959.59
2022-10-11T05:57:26.056Z,98960.13
2022-10-11T05:59:52.572Z,98962.97
2022-10-11T06:02:19.543Z,98972.06
2022-10-11T06:04:46.118Z,98972.78
2022-10-11T06:07:12.738Z,98977.00
2022-10-11T06:09:39.734Z,98978.06
2022-10-11T06:12:06.566Z,98984.44
2022-10-11T06:14:33.171Z,98988.53
2022-10-11T06:16:59.791Z,98981.75
2022-10-11T06:19:26.322Z,98985.03
2022-10-11T06:21:52.911Z,98986.31
2022-10-11T06:24:19.515Z,98987.06
2022-10-11T06:26:48.992Z,98982.91
2022-10-11T06:29:15.573Z,98991.06
2022-10-11T06:31:42.215Z,98991.66
2022-10-11T06:34:08.854Z,98999.50
2022-10-11T06:36:35.523Z,98998.13
2022-10-11T06:39:02.203Z,99003.44
2022-10-11T06:41:30.160Z,99000.00
2022-10-11T06:43:56.835Z,99000.72
2022-10-11T06:46:25.696Z,99008.13
2022-10-11T06:48:52.719Z,99006.88
2022-10-11T06:51:21.342Z,99008.28
2022-10-11T06:53:55.790Z,99013.78
2022-10-11T06:56:22.604Z,99010.16
2022-10-11T06:58:50.931Z,99017.44
2022-10-11T07:01:20.180Z,99016.31
2022-10-11T07:03:47.543Z,99024.31
2022-10-11T07:06:16.395Z,99024.94
2022-10-11T07:08:43.320Z,99028.75
2022-10-11T07:11:15.283Z,99025.59
2022-10-11T07:13:42.203Z,99033.50
2022-10-11T07:16:11.143Z,99037.50
2022-10-11T07:18:38.411Z,99035.81
2022-10-11T07:21:11.649Z,99046.63
2022-10-11T07:23:38.196Z,99050.22
2022-10-11T07:26:07.194Z,99048.59
2022-10-11T07:28:34.970Z,99051.28
2022-10-11T07:31:22.012Z,99052.09
2022-10-11T07:33:48.875Z,99050.53
2022-10-11T07:36:15.527Z,99054.13
2022-10-11T07:38:43.901Z,99053.50
2022-10-11T07:41:10.974Z,99055.16
2022-10-11T07:43:38.226Z,99056.09
2022-10-11T07:46:05.645Z,99054.00
2022-10-11T07:48:36.507Z,99060.25
2022-10-11T07:51:05.144Z,99051.81
2022-10-11T07:53:31.819Z,99060.31
2022-10-11T07:56:02.338Z,99060.63
2022-10-11T07:58:29.410Z,99065.84
2022-10-11T08:00:56.263Z,99063.00
2022-10-11T08:03:22.964Z,99065.88
2022-10-11T08:05:52.084Z,99061.63
2022-10-11T08:08:19.403Z,99068.22
2022-10-11T08:10:46.049Z,99064.84
2022-10-11T08:13:12.650Z,99068.16
2022-10-11T08:15:39.152Z,99065.53
2022-10-11T08:18:05.737Z,99075.91
2022-10-11T08:20:33.150Z,99073.53
2022-10-11T08:23:00.043Z,99075.69
2022-10-11T08:25:26.657Z,99071.09
2022-10-11T08:27:53.203Z,99078.00
2022-10-11T08:30:20.111Z,99077.28
2022-10-11T08:32:46.697Z,99079.44
2022-10-11T08:35:13.285Z,99072.91
2022-10-11T08:37:39.986Z,99081.94
2022-10-11T08:40:07.260Z,99081.56
2022-10-11T08:42:46.559Z,99078.97
2022-10-11T08:45:38.761Z,99073.53
2022-10-11T08:48:13.523Z,99074.84
2022-10-11T08:50:41.302Z,99076.28
2022-10-11T08:53:13.406Z,99080.97
2022-10-11T08:55:45.000Z,99075.72
2022-10-11T08:58:21.139Z,99075.47
2022-10-11T09:00:50.223Z,99077.59
2022-10-11T09:03:23.404Z,99081.22
2022-10-11T09:05:52.769Z,99074.75
2022-10-11T09:08:33.440Z,99079.59
2022-10-11T09:11:07.072Z,99080.28
2022-10-11T09:14:11.413Z,99079.81
2022-10-11T09:16:56.723Z,99077.16
2022-10-11T09:19:29.324Z,99071.47
2022-10-11T09:21:58.974Z,99076.44
2022-10-11T09:24:50.045Z,99078.06
2022-10-11T09:27:33.046Z,99077.28
2022-10-11T09:30:14.664Z,99081.97
2022-10-11T09:32:42.615Z,99078.44
2022-10-11T09:35:18.798Z,99083.28
2022-10-11T09:37:54.402Z,99082.84
2022-10-11T09:40:39.191Z,99079.09
2022-10-11T09:43:05.984Z,99075.50
2022-10-11T09:45:32.550Z,99078.69
2022-10-11T09:48:00.227Z,99078.91
2022-10-11T09:50:29.653Z,99081.03
2022-10-11T09:53:02.212Z,99080.38
2022-10-11T09:55:43.619Z,99087.53
2022-10-11T09:58:34.324Z,99085.91
2022-10-11T10:01:28.150Z,99088.56
2022-10-11T10:04:09.966Z,99090.19
2022-10-11T10:06:37.507Z,99095.50
2022-10-11T10:09:20.531Z,99090.06
2022-10-11T10:11:47.355Z,99090.25
2022-10-11T10:14:25.909Z,99086.59
2022-10-11T10:17:00.991Z,99092.69
2022-10-11T10:19:27.626Z,99089.59
2022-10-11T10:21:55.277Z,99086.34
2022-10-11T10:24:27.945Z,99088.97
2022-10-11T10:27:22.934Z,99076.84
2022-10-11T10:30:02.989Z,99085.31
2022-10-11T10:32:46.175Z,99086.72
2022-10-11T10:35:29.041Z,99082.78
2022-10-11T10:38:17.455Z,99092.59
2022-10-11T10:40:48.139Z,99091.03
2022-10-11T10:43:20.050Z,99087.50
2022-10-11T10:46:05.954Z,99088.84
2022-10-11T10:51:57.763Z,99092.19
2022-10-11T10:54:40.541Z,99092.09
2022-10-11T10:57:16.043Z,99094.56
2022-10-11T10:59:45.580Z,99090.66
2022-10-11T11:02:40.809Z,99093.84
2022-10-11T11:05:23.001Z,99085.44
2022-10-11T11:08:15.428Z,99089.59
2022-10-11T11:10:48.116Z,99078.91
2022-10-11T11:13:33.465Z,99085.44
2022-10-11T11:16:31.004Z,99081.63
2022-10-11T11:19:25.749Z,99081.59
2022-10-11T11:22:10.400Z,99081.16
2022-10-11T11:25:03.690Z,99082.81
2022-10-11T11:27:50.196Z,99086.66
2022-10-11T11:30:20.183Z,99070.97
2022-10-11T11:32:57.329Z,99073.19
2022-10-11T11:35:39.769Z,99076.84
2022-10-11T11:38:29.973Z,99072.88
2022-10-11T11:41:02.651Z,99063.84
2022-10-11T11:43:36.821Z,99067.72
2022-10-11T11:46:09.561Z,99072.44
2022-10-11T11:48:36.213Z,99064.34
2022-10-11T11:51:09.514Z,99070.16
2022-10-11T11:54:06.293Z,99063.31
2022-10-11T11:56:48.901Z,99065.34
2022-10-11T11:59:33.792Z,99069.63
2022-10-11T12:02:18.862Z,99060.28
2022-10-11T12:04:48.280Z,99060.09
2022-10-11T12:07:20.096Z,99058.88
2022-10-11T12:09:50.629Z,99058.72
2022-10-11T12:12:39.745Z,99064.88
2022-10-11T12:15:09.597Z,99062.00
2022-10-11T12:17:55.772Z,99060.03
2022-10-11T12:20:26.212Z,99069.66
2022-10-11T12:22:54.289Z,99067.72
2022-10-11T12:25:27.015Z,99054.53
2022-10-11T12:27:56.138Z,99052.38
2022-10-11T12:30:47.497Z,99052.16
2022-10-11T12:33:26.039Z,99049.84
2022-10-11T12:35:55.734Z,99058.75
2022-10-11T12:38:26.135Z,99056.66
2022-10-11T12:41:03.381Z,99055.22
2022-10-11T12:43:32.993Z,99050.25
2022-10-11T12:46:28.736Z,99048.38
2022-10-11T12:49:12.749Z,99050.50
2022-10-11T12:51:44.555Z,99051.84
2022-10-11T12:54:36.988Z,99050.72
2022-10-11T12:57:28.952Z,99044.66
2022-10-11T13:00:08.076Z,99046.34
2022-10-11T13:02:44.641Z,99050.50
2022-10-11T13:05:26.784Z,99045.78
2022-10-11T13:07:56.250Z,99046.84
2022-10-11T13:10:36.107Z,99046.75
2022-10-11T13:13:04.468Z,99042.72
2022-10-11T13:15:31.627Z,99037.06
2022-10-11T13:18:00.108Z,99043.03
2022-10-11T13:20:30.892Z,99037.81
2022-10-11T13:22:57.452Z,99035.47
2022-10-11T13:25:30.033Z,99024.41
2022-10-11T13:27:59.449Z,99025.09
2022-10-11T13:30:38.085Z,99024.81
2022-10-11T13:33:08.640Z,99019.50
2022-10-11T13:35:36.681Z,99018.63
2022-10-11T13:38:05.249Z,99025.22
2022-10-11T13:40:32.184Z,99023.41
2022-10-11T13:42:59.650Z,99026.31
2022-10-11T13:45:27.397Z,99030.47
2022-10-11T13:47:54.882Z,99027.63
2022-10-11T13:50:30.699Z,99029.31
2022-10-11T13:53:05.197Z,99028.16
2022-10-11T13:55:32.628Z,99025.75
2022-10-11T13:58:01.381Z,99023.06
2022-10-11T14:00:33.944Z,99019.00
2022-10-11T14:03:04.574Z,99020.69
2022-10-11T14:05:39.387Z,99015.69
2022-10-11T14:08:28.894Z,99020.63
2022-10-11T14:10:57.794Z,99017.59
2022-10-11T14:13:43.102Z,99019.00
2022-10-11T14:16:12.706Z,99021.66
2022-10-11T14:18:52.339Z,99020.31
2022-10-11T14:21:18.769Z,99019.69
2022-10-11T14:23:56.072Z,99031.94
2022-10-11T14:26:26.870Z,99022.88
2022-10-11T14:29:02.353Z,99021.97
2022-10-11T14:31:31.975Z,99026.44
2022-10-11T14:33:58.660Z,99025.38
2022-10-11T14:36:26.055Z,99020.28
2022-10-11T14:38:53.173Z,99022.97
2022-10-11T14:41:19.833Z,99028.13
2022-10-11T14:43:46.443Z,99023.53
2022-10-11T14:46:24.472Z,99025.16
2022-10-11T14:48:56.330Z,99028.13
2022-10-11T14:51:26.398Z,99020.50
2022-10-11T14:53:56.476Z,99019.88
2022-10-11T14:56:23.066Z,99026.25
2022-10-11T14:58:49.720Z,99021.97
2022-10-11T15:01:16.961Z,99023.72
2022-10-11T15:03:43.556Z,99019.84
2022-10-11T15:06:21.749Z,99017.44
2022-10-11T15:08:48.559Z,99019.84
2022-10-11T15:11:17.445Z,99012.50
2022-10-11T15:13:44.264Z,99007.22
2022-10-11T15:16:14.412Z,99003.50
2022-10-11T15:18:41.324Z,99003.91
2022-10-11T15:21:07.981Z,99003.75
2022-10-11T15:23:34.670Z,99007.78
2022-10-11T15:26:01.264Z,99009.13
2022-10-11T15:28:30.171Z,99009.72
2022-10-11T15:30:57.005Z,99009.41
2022-10-11T15:33:23.843Z,99014.00
2022-10-11T15:35:50.899Z,99011.75
2022-10-11T15:38:19.916Z,99007.16
2022-10-11T15:40:47.715Z,99014.34
2022-10-11T15:43:15.544Z,99011.91
2022-10-11T15:45:42.525Z,99008.69
2022-10-11T15:48:14.559Z,99011.50
2022-10-11T15:50:41.434Z,99002.59
2022-10-11T15:53:10.704Z,99005.09
2022-10-11T15:55:39.857Z,99004.47
2022-10-11T15:58:09.408Z,99002.00
2022-10-11T16:00:36.029Z,99006.28
2022-10-11T16:03:02.638Z,99003.19
2022-10-11T16:05:29.222Z,99005.81
2022-10-11T16:07:55.855Z,99007.31
2022-10-11T16:10:22.625Z,99004.56
2022-10-11T16:12:49.480Z,99005.53
2022-10-11T16:15:16.133Z,99002.00
2022-10-11T16:17:42.663Z,99002.88
2022-10-11T16:20:09.489Z,98996.94
2022-10-11T16:22:36.011Z,99004.09
2022-10-11T16:25:10.215Z,98999.50
2022-10-11T16:27:36.678Z,99002.56
2022-10-11T16:30:03.932Z,99010.25
2022-10-11T16:32:34.395Z,98997.41
2022-10-11T16:35:05.158Z,99005.97
2022-10-11T16:37:39.981Z,99008.28
2022-10-11T16:40:07.838Z,99008.13
2022-10-11T16:42:34.456Z,99005.03
2022-10-11T16:45:01.495Z,99006.28
2022-10-11T16:47:27.997Z,99005.81
2022-10-11T16:49:54.615Z,99013.91
2022-10-11T16:52:21.309Z,99012.28
2022-10-11T16:54:48.409Z,99011.75
2022-10-11T16:57:17.037Z,99006.28
2022-10-11T16:59:43.657Z,99014.06
2022-10-11T17:02:21.717Z,99012.47
2022-10-11T17:04:50.544Z,99015.19
2022-10-11T17:07:18.822Z,99011.72
2022-10-11T17:09:46.107Z,99013.25
2022-10-11T17:12:13.960Z,99017.44
2022-10-11T17:14:40.804Z,99016.25
2022-10-11T17:17:08.822Z,99010.53
2022-10-11T17:19:41.368Z,99015.47
2022-10-11T17:22:11.774Z,99015.03
2022-10-11T17:24:38.658Z,99015.72
2022-10-11T17:27:06.129Z,99014.78
2022-10-11T17:29:32.971Z,99010.03
2022-10-11T17:32:00.040Z,99004.53
2022-10-11T17:34:26.648Z,99011.69
2022-10-11T17:36:53.250Z,99007.81
2022-10-11T17:39:22.238Z,99005.78
2022-10-11T17:41:49.446Z,99002.00
2022-10-11T17:44:19.008Z,99011.84
2022-10-11T17:46:46.461Z,99001.72
2022-10-11T17:49:13.488Z,98995.25
2022-10-11T17:51:40.573Z,99002.22
2022-10-11T17:54:12.161Z,99002.31
2022-10-11T17:56:40.371Z,99006.50
2022-10-11T17:59:08.179Z,99016.63
2022-10-11T18:01:34.885Z,99016.13
2022-10-11T18:04:04.190Z,99016.13
2022-10-11T18:06:33.738Z,99025.50
2022-10-11T18:09:01.645Z,99021.38
2022-10-11T18:11:28.481Z,99032.47
2022-10-11T18:13:55.055Z,99029.06
2022-10-11T18:16:23.692Z,99027.91
2022-10-11T18:18:50.513Z,99028.88
2022-10-11T18:21:18.781Z,99041.03
2022-10-11T18:23:46.599Z,99035.47
2022-10-11T18:26:14.059Z,99034.75
2022-10-11T18:28:41.574Z,99029.22
2022-10-11T18:31:13.022Z,99024.13
2022-10-11T18:33:40.368Z,99023.69
2022-10-11T18:36:07.983Z,99017.47
2022-10-11T18:38:35.149Z,99016.00
2022-10-11T18:41:09.675Z,99018.94
2022-10-11T18:43:36.583Z,99027.50
2022-10-11T18:46:08.064Z,99014.31
2022-10-11T18:48:34.779Z,99018.66
2022-10-11T18:51:08.888Z,99013.72
2022-10-11T18:53:37.463Z,99023.22
2022-10-11T18:56:08.037Z,99012.59
2022-10-11T18:58:37.208Z,99022.69
2022-10-11T19:01:13.258Z,99022.16
2022-10-11T19:03:40.203Z,99024.63
2022-10-11T19:06:12.795Z,99025.66
2022-10-11T19:08:39.610Z,99020.06
2022-10-11T19:11:10.568Z,99024.66
2022-10-11T19:13:37.081Z,99015.88
2022-10-11T19:16:12.508Z,99012.25
2022-10-11T19:18:43.931Z,99019.69
2022-10-11T19:21:12.509Z,99017.78
2022-10-11T19:23:41.770Z,99011.81
2022-10-11T19:26:22.897Z,99017.78
2022-10-11T19:28:55.988Z,99014.41
2022-10-11T19:31:22.668Z,99012.19
2022-10-11T19:33:49.583Z,99013.06
2022-10-11T19:36:16.630Z,99017.34
2022-10-11T19:38:48.339Z,99008.00
2022-10-11T19:41:17.511Z,99008.25
2022-10-11T19:43:44.188Z,99015.00
2022-10-11T19:46:20.255Z,99011.47
2022-10-11T19:48:54.276Z,99014.91
2022-10-11T19:51:25.478Z,99018.00
2022-10-11T19:53:59.710Z,99013.63
2022-10-11T19:56:26.995Z,99012.41
2022-10-11T19:58:53.727Z,99008.63
2022-10-11T20:01:24.529Z,99012.19
2022-10-11T20:03:58.780Z,99017.56
2022-10-11T20:06:27.674Z,99023.16
2022-10-11T20:09:16.748Z,99019.69
2022-10-11T20:11:41.638Z,99020.16
2022-10-11T20:14:08.736Z,99019.28
2022-10-11T20:16:35.289Z,99021.81
2022-10-11T20:19:02.129Z,99026.34
2022-10-11T20:21:29.952Z,99021.41
2022-10-11T20:24:02.073Z,99026.13
2022-10-11T20:26:29.886Z,99027.31
2022-10-11T20:28:56.682Z,99024.19
2022-10-11T20:31:31.860Z,99036.59
2022-10-11T20:34:01.664Z,99034.34
2022-10-11T20:36:30.001Z,99031.03
2022-10-11T20:38:57.851Z,99024.34
2022-10-11T20:41:25.193Z,99022.00
2022-10-11T20:43:54.074Z,99024.03
2022-10-11T20:46:24.541Z,99028.50
2022-10-11T20:49:01.211Z,99023.25
2022-10-11T20:51:32.935Z,99027.34
2022-10-11T20:54:00.583Z,99026.03
2022-10-11T20:56:27.125Z,99029.63
2022-10-11T20:58:54.988Z,99036.31
2022-10-11T21:01:23.039Z,99027.06
2022-10-11T21:03:50.299Z,99024.72
2022-10-11T21:06:16.871Z,99033.41
2022-10-11T21:08:43.423Z,99033.81
2022-10-11T21:11:10.527Z,99024.38
2022-10-11T21:13:37.448Z,99027.72
2022-10-11T21:16:15.224Z,99028.94
2022-10-11T21:18:42.157Z,99037.44
2022-10-11T21:21:11.354Z,99030.13
2022-10-11T21:23:38.477Z,99031.84
2022-10-11T21:26:06.939Z,99042.38
2022-10-11T21:28:33.964Z,99030.66
2022-10-11T21:31:11.627Z,99031.69
2022-10-11T21:33:38.625Z,99027.41
2022-10-11T21:36:06.434Z,99017.66
2022-10-11T21:38:33.079Z,99021.03
2022-10-11T21:41:02.756Z,99009.41
2022-10-11T21:43:29.229Z,99020.84
2022-10-11T21:45:55.816Z,99014.41
2022-10-11T21:48:22.529Z,99016.44
2022-10-11T21:50:55.126Z,99014.63
2022-10-11T21:53:21.748Z,99011.81
2022-10-11T21:55:48.235Z,99010.69
2022-10-11T21:58:14.916Z,99014.81
2022-10-11T22:00:44.198Z,99017.28
2022-10-11T22:03:11.207Z,99012.91
2022-10-11T22:05:43.534Z,99011.00
2022-10-11T22:08:10.222Z,99008.97
2022-10-11T22:10:36.785Z,99017.00
2022-10-11T22:13:03.325Z,99007.31
2022-10-11T22:15:33.568Z,99003.47
2022-10-11T22:18:01.023Z,99006.16
2022-10-11T22:20:27.572Z,98997.66
2022-10-11T22:22:54.189Z,99005.50
2022-10-11T22:25:20.995Z,98999.63
2022-10-11T22:27:47.575Z,98998.03
2022-10-11T22:30:14.093Z,98991.13
2022-10-11T22:32:40.786Z,98996.44
2022-10-11T22:35:07.575Z,98993.91
2022-10-11T22:37:34.301Z,98990.44
2022-10-11T22:40:01.113Z,98991.97
2022-10-11T22:42:29.411Z,98994.44
2022-10-11T22:44:56.540Z,98994.81
2022-10-11T22:47:23.161Z,98996.19
2022-10-11T22:49:49.680Z,98994.44
2022-10-11T22:52:19.264Z,98993.94
2022-10-11T22:54:45.840Z,98989.31
2022-10-11T22:57:12.344Z,98986.66
2022-10-11T22:59:38.902Z,98983.25
2022-10-11T23:02:05.410Z,98982.59
2022-10-11T23:04:32.365Z,98980.66
2022-10-11T23:07:02.560Z,98979.66
2022-10-11T23:09:31.886Z,98984.63
2022-10-11T23:11:59.100Z,98984.81
2022-10-11T23:14:25.719Z,98981.06
2022-10-11T23:16:52.452Z,98980.72
2022-10-11T23:19:19.157Z,98981.75
2022-10-11T23:21:45.779Z,98973.72
2022-10-11T23:24:12.846Z,98975.00
2022-10-11T23:26:39.361Z,98983.63
2022-10-11T23:29:06.217Z,98964.06
2022-10-11T23:31:32.802Z,98971.22
2022-10-11T23:33:59.518Z,98968.97
2022-10-11T23:36:26.519Z,98973.47
2022-10-11T23:38:55.003Z,98975.34
2022-10-11T23:41:23.101Z,98980.47
2022-10-11T23:43:49.694Z,98982.25
2022-10-11T23:46:16.221Z,98986.25
2022-10-11T23:48:42.852Z,98983.44
2022-10-11T23:51:10.134Z,98985.50
2022-10-11T23:53:37.015Z,98979.28
2022-10-11T23:56:04.385Z,98979.91
2022-10-11T23:58:31.065Z,98974.81
